createdAt,value
2019-01-05T00:00:35.827Z,22.40
2019-01-05T00:01:28.869Z,22.25
2019-01-05T00:02:26.528Z,22.95
2019-01-05T00:03:19.667Z,22.65
2019-01-05T00:04:23.368Z,23.62
2019-01-05T00:05:16.399Z,23.27
2019-01-05T00:06:19.888Z,25.00
2019-01-05T00:07:06.800Z,24.63
2019-01-05T00:08:00.339Z,21.85
2019-01-05T00:08:53.395Z,22.20
2019-01-05T00:09:53.699Z,23.20
2019-01-05T00:10:51.148Z,24.05
2019-01-05T00:12:03.747Z,22.02
2019-01-05T00:12:58.236Z,18.92
2019-01-05T00:13:51.476Z,21.50
2019-01-05T00:14:44.927Z,19.55
2019-01-05T00:15:42.817Z,16.75
2019-01-05T00:16:40.328Z,23.32
2019-01-05T00:17:44.027Z,21.82
2019-01-05T00:18:30.121Z,21.40
2019-01-05T00:19:31.339Z,20.92
2019-01-05T00:20:32.259Z,19.20
2019-01-05T00:21:39.029Z,19.35
2019-01-05T00:22:28.290Z,21.57
2019-01-05T00:23:26.076Z,19.35
2019-01-05T00:24:30.039Z,21.85
2019-01-05T00:25:24.719Z,21.17
2019-01-05T00:26:22.587Z,24.00
2019-01-05T00:27:23.299Z,20.75
2019-01-05T00:28:17.979Z,22.45
2019-01-05T00:29:15.150Z,23.80
2019-01-05T00:30:19.760Z,24.23
2019-01-05T00:31:12.989Z,21.62
2019-01-05T00:32:57.429Z,21.48
2019-01-05T00:34:02.362Z,21.97
2019-01-05T00:35:00.833Z,18.10
2019-01-05T00:36:14.859Z,23.27
2019-01-05T00:37:21.629Z,22.67
2019-01-05T00:38:27.279Z,21.82
2019-01-05T00:39:20.508Z,22.20
2019-01-05T00:40:20.619Z,24.07
2019-01-05T00:41:25.949Z,23.83
2019-01-05T00:42:24.449Z,21.60
2019-01-05T00:43:18.491Z,21.70
2019-01-05T00:44:12.969Z,23.70
2019-01-05T00:45:08.259Z,23.73
2019-01-05T00:46:07.038Z,23.60
2019-01-05T00:47:00.799Z,22.37
2019-01-05T00:48:11.051Z,24.77
2019-01-05T00:49:07.369Z,21.77
2019-01-05T00:50:00.920Z,23.73
2019-01-05T00:51:01.550Z,20.95
2019-01-05T00:52:00.938Z,26.52
2019-01-05T00:52:57.869Z,24.80
2019-01-05T00:54:11.399Z,23.45
2019-01-05T00:55:21.850Z,23.47
2019-01-05T00:56:16.432Z,21.90
2019-01-05T00:57:25.851Z,22.58
2019-01-05T00:58:19.312Z,20.77
2019-01-05T00:59:13.169Z,21.82
2019-01-05T01:00:18.909Z,24.20
2019-01-05T01:01:11.539Z,23.52
2019-01-05T01:02:09.299Z,24.87
2019-01-05T01:03:18.937Z,24.15
2019-01-05T01:04:22.321Z,22.35
2019-01-05T01:05:19.861Z,22.60
2019-01-05T01:06:23.859Z,21.97
2019-01-05T01:07:17.110Z,24.60
2019-01-05T01:08:27.148Z,23.10
2019-01-05T01:09:32.178Z,25.08
2019-01-05T01:10:29.739Z,21.10
2019-01-05T01:11:30.250Z,25.88
2019-01-05T01:12:30.769Z,23.57
2019-01-05T01:13:40.600Z,22.80
2019-01-05T01:14:47.258Z,19.95
2019-01-05T01:15:40.409Z,23.25
2019-01-05T01:16:34.996Z,23.77
2019-01-05T01:17:44.829Z,22.85
2019-01-05T01:18:36.034Z,24.32
2019-01-05T01:19:30.209Z,20.75
2019-01-05T01:20:24.778Z,23.50
2019-01-05T01:21:34.720Z,23.92
2019-01-05T01:22:41.279Z,21.40
2019-01-05T01:23:35.869Z,22.58
2019-01-05T01:24:28.998Z,21.02
2019-01-05T01:25:24.418Z,23.85
2019-01-05T01:26:22.989Z,25.10
2019-01-05T01:27:30.265Z,25.65
2019-01-05T01:28:25.042Z,23.90
2019-01-05T01:29:25.654Z,23.50
2019-01-05T01:30:18.593Z,24.70
2019-01-05T01:31:11.744Z,22.98
2019-01-05T01:32:05.095Z,23.90
2019-01-05T01:32:59.775Z,22.65
2019-01-05T01:33:55.175Z,22.35
2019-01-05T01:34:48.724Z,21.85
2019-01-05T01:35:36.036Z,25.15
2019-01-05T01:36:29.794Z,21.55
2019-01-05T01:37:42.704Z,21.48
2019-01-05T01:38:43.535Z,20.82
2019-01-05T01:39:48.972Z,21.93
2019-01-05T01:40:32.067Z,23.87
2019-01-05T01:41:39.974Z,24.30
2019-01-05T01:42:35.773Z,17.57
2019-01-05T01:43:33.550Z,22.07
2019-01-05T01:44:43.280Z,21.15
2019-01-05T01:45:45.314Z,22.75
2019-01-05T01:46:40.935Z,22.32
2019-01-05T01:47:35.912Z,22.70
2019-01-05T01:48:31.112Z,21.93
2019-01-05T01:49:36.965Z,22.60
2019-01-05T01:50:30.605Z,14.58
2019-01-05T01:51:38.394Z,23.60
2019-01-05T01:52:31.435Z,22.42
2019-01-05T01:53:34.414Z,23.12
2019-01-05T01:54:35.344Z,20.92
2019-01-05T01:55:29.614Z,20.40
2019-01-05T01:56:24.496Z,22.95
2019-01-05T01:57:21.843Z,22.98
2019-01-05T01:58:18.574Z,22.55
2019-01-05T01:59:23.084Z,21.82
2019-01-05T02:00:26.892Z,22.07
2019-01-05T02:01:27.302Z,19.25
2019-01-05T02:02:19.414Z,21.85
2019-01-05T02:03:12.094Z,21.87
2019-01-05T02:04:04.507Z,21.02
2019-01-05T02:05:04.894Z,20.12
2019-01-05T02:06:01.214Z,18.70
2019-01-05T02:06:58.872Z,24.18
2019-01-05T02:08:10.955Z,22.25
2019-01-05T02:09:16.387Z,17.27
2019-01-05T02:10:10.069Z,19.77
2019-01-05T02:11:07.807Z,20.90
2019-01-05T02:12:20.608Z,14.15
2019-01-05T02:13:20.408Z,20.52
2019-01-05T02:14:25.956Z,20.45
2019-01-05T02:15:22.879Z,20.15
2019-01-05T02:16:22.068Z,19.77
2019-01-05T02:17:24.948Z,19.00
2019-01-05T02:18:51.779Z,22.62
2019-01-05T02:20:03.357Z,13.75
2019-01-05T02:21:29.787Z,20.37
2019-01-05T02:22:57.128Z,16.85
2019-01-05T02:24:46.798Z,16.42
2019-01-05T02:26:16.748Z,18.95
2019-01-05T02:27:48.047Z,16.05
2019-01-05T02:29:25.438Z,14.07
2019-01-05T02:30:30.967Z,18.50
2019-01-05T02:31:40.158Z,16.57
2019-01-05T02:33:18.195Z,15.18
2019-01-05T02:35:19.027Z,17.80
2019-01-05T02:36:46.167Z,17.23
2019-01-05T02:38:30.107Z,18.12
2019-01-05T02:40:16.395Z,16.10
2019-01-05T02:41:58.899Z,16.70
2019-01-05T02:43:33.004Z,16.73
2019-01-05T02:45:09.666Z,18.20
2019-01-05T02:46:33.937Z,19.20
2019-01-05T02:48:00.058Z,19.17
2019-01-05T02:49:27.417Z,18.57
2019-01-05T02:50:47.377Z,15.23
2019-01-05T02:52:23.949Z,16.57
2019-01-05T02:54:06.138Z,16.85
2019-01-05T02:55:25.915Z,14.95
2019-01-05T02:57:15.277Z,17.17
2019-01-05T02:58:37.706Z,16.93
2019-01-05T03:00:26.254Z,18.57
2019-01-05T03:01:50.757Z,17.10
2019-01-05T03:03:19.816Z,18.67
2019-01-05T03:04:59.347Z,15.45
2019-01-05T03:06:51.068Z,13.95
2019-01-05T03:08:24.146Z,18.23
2019-01-05T03:10:21.497Z,14.95
2019-01-05T03:12:04.311Z,14.95
2019-01-05T03:13:34.644Z,17.35
2019-01-05T03:15:23.171Z,17.45
2019-01-05T03:16:41.411Z,15.20
2019-01-05T03:18:22.680Z,17.77
2019-01-05T03:19:59.041Z,18.20
2019-01-05T03:21:25.979Z,15.95
2019-01-05T03:23:01.311Z,19.62
2019-01-05T03:24:31.940Z,18.75
2019-01-05T03:26:14.750Z,13.88
2019-01-05T03:27:57.350Z,14.20
2019-01-05T03:29:26.440Z,17.02
2019-01-05T03:31:18.583Z,18.12
2019-01-05T03:32:50.533Z,17.27
2019-01-05T03:34:17.770Z,17.95
2019-01-05T03:36:00.270Z,19.98
2019-01-05T03:37:48.721Z,17.95
2019-01-05T03:39:22.720Z,18.37
2019-01-05T03:40:51.193Z,19.98
2019-01-05T03:42:37.236Z,17.60
2019-01-05T03:44:27.463Z,16.48
2019-01-05T03:46:00.231Z,16.62
2019-01-05T03:47:46.930Z,17.45
2019-01-05T03:49:09.789Z,18.05
2019-01-05T03:50:42.249Z,18.50
2019-01-05T03:52:18.509Z,16.55
2019-01-05T03:53:48.213Z,18.50
2019-01-05T03:55:35.017Z,18.87
2019-01-05T03:57:10.130Z,18.27
2019-01-05T03:58:49.879Z,15.78
2019-01-05T04:00:32.682Z,14.98
2019-01-05T04:01:56.042Z,16.80
2019-01-05T04:03:35.781Z,19.02
2019-01-05T04:05:19.512Z,18.48
2019-01-05T04:06:49.723Z,18.30
2019-01-05T04:08:37.651Z,18.42
2019-01-05T04:10:28.041Z,19.67
2019-01-05T04:11:56.512Z,17.23
2019-01-05T04:13:39.762Z,17.77
2019-01-05T04:15:25.618Z,17.55
2019-01-05T04:17:19.698Z,19.60
2019-01-05T04:19:01.170Z,20.02
2019-01-05T04:20:43.769Z,18.75
2019-01-05T04:22:33.749Z,19.45
2019-01-05T04:23:54.440Z,16.57
2019-01-05T04:25:38.480Z,18.77
2019-01-05T04:27:09.833Z,20.10
2019-01-05T04:29:08.216Z,19.25
2019-01-05T04:30:50.515Z,18.37
2019-01-05T04:32:26.453Z,15.90
2019-01-05T04:33:42.634Z,18.92
2019-01-05T04:35:10.593Z,15.60
2019-01-05T04:36:54.216Z,18.35
2019-01-05T04:38:37.144Z,15.70
2019-01-05T04:40:18.457Z,17.25
2019-01-05T04:42:05.113Z,16.12
2019-01-05T04:43:37.006Z,17.55
2019-01-05T04:44:59.193Z,17.37
2019-01-05T04:46:31.967Z,18.65
2019-01-05T04:48:16.926Z,17.57
2019-01-05T04:49:56.475Z,16.25
2019-01-05T04:51:25.132Z,16.87
2019-01-05T04:53:14.100Z,15.30
2019-01-05T04:55:07.561Z,14.63
2019-01-05T04:56:22.449Z,15.05
2019-01-05T04:57:52.624Z,17.37
2019-01-05T04:59:21.819Z,16.30
2019-01-05T05:01:16.390Z,15.05
2019-01-05T05:02:54.040Z,15.95
2019-01-05T05:04:18.870Z,16.60
2019-01-05T05:05:58.513Z,17.40
2019-01-05T05:07:25.863Z,14.83
2019-01-05T05:08:55.654Z,18.25
2019-01-05T05:10:27.205Z,14.38
2019-01-05T05:11:53.325Z,17.42
2019-01-05T05:13:21.488Z,15.80
2019-01-05T05:15:26.322Z,14.47
2019-01-05T05:16:54.487Z,11.75
2019-01-05T05:18:57.605Z,13.45
2019-01-05T05:20:38.154Z,16.10
2019-01-05T05:22:12.344Z,14.68
2019-01-05T05:23:38.035Z,15.53
2019-01-05T05:25:19.725Z,16.35
2019-01-05T05:27:00.486Z,13.83
2019-01-05T05:28:30.286Z,13.48
2019-01-05T05:30:28.058Z,13.50
2019-01-05T05:32:02.256Z,16.12
2019-01-05T05:33:31.145Z,14.63
2019-01-05T05:35:09.955Z,13.28
2019-01-05T05:36:55.233Z,14.45
2019-01-05T05:38:43.765Z,13.90
2019-01-05T05:40:35.596Z,13.75
2019-01-05T05:42:17.686Z,13.22
2019-01-05T05:44:04.186Z,16.00
2019-01-05T05:45:48.524Z,17.67
2019-01-05T05:47:25.625Z,15.83
2019-01-05T05:48:48.545Z,15.95
2019-01-05T05:50:28.795Z,18.77
2019-01-05T05:51:56.165Z,16.32
2019-01-05T05:53:33.835Z,16.37
2019-01-05T05:54:59.239Z,14.20
2019-01-05T05:56:36.417Z,16.02
2019-01-05T05:58:19.731Z,15.43
2019-01-05T06:00:06.341Z,18.30
2019-01-05T06:01:41.261Z,14.05
2019-01-05T06:03:20.511Z,17.37
2019-01-05T06:05:05.241Z,15.13
2019-01-05T06:06:17.238Z,13.35
2019-01-05T06:07:56.154Z,12.63
2019-01-05T06:09:53.911Z,13.50
2019-01-05T06:11:49.621Z,14.45
2019-01-05T06:13:14.711Z,14.00
2019-01-05T06:14:44.113Z,14.03
2019-01-05T06:16:19.140Z,15.35
2019-01-05T06:17:59.901Z,15.43
2019-01-05T06:19:47.730Z,16.40
2019-01-05T06:21:32.381Z,14.98
2019-01-05T06:23:21.131Z,15.93
2019-01-05T06:25:08.851Z,16.25
2019-01-05T06:26:32.410Z,17.00
2019-01-05T06:28:16.656Z,16.20
2019-01-05T06:29:47.083Z,17.45
2019-01-05T06:31:25.997Z,16.97
2019-01-05T06:32:55.386Z,21.40
2019-01-05T06:34:25.705Z,20.25
2019-01-05T06:36:13.946Z,15.45
2019-01-05T06:38:02.918Z,19.32
2019-01-05T06:39:45.103Z,19.30
2019-01-05T06:41:09.166Z,18.95
2019-01-05T06:42:49.006Z,14.45
2019-01-05T06:44:25.256Z,19.15
2019-01-05T06:45:57.416Z,20.77
2019-01-05T06:47:31.533Z,20.57
2019-01-05T06:49:24.986Z,18.70
2019-01-05T06:51:31.444Z,19.42
2019-01-05T06:53:20.705Z,15.80
2019-01-05T06:54:57.605Z,14.87
2019-01-05T06:56:43.056Z,17.60
2019-01-05T06:58:13.186Z,19.67
2019-01-05T06:59:59.965Z,20.57
2019-01-05T07:01:36.346Z,16.10
2019-01-05T07:03:06.654Z,20.20
2019-01-05T07:04:39.826Z,19.40
2019-01-05T07:06:35.126Z,22.05
2019-01-05T07:08:18.146Z,18.15
2019-01-05T07:09:56.345Z,19.00
2019-01-05T07:11:39.986Z,21.17
2019-01-05T07:13:05.584Z,23.25
2019-01-05T07:14:58.233Z,21.27
2019-01-05T07:16:36.936Z,21.30
2019-01-05T07:18:08.466Z,23.10
2019-01-05T07:19:48.443Z,23.30
2019-01-05T07:21:28.328Z,21.20
2019-01-05T07:23:08.737Z,21.77
2019-01-05T07:24:36.966Z,22.60
2019-01-05T07:26:28.519Z,23.22
2019-01-05T07:28:07.558Z,23.98
2019-01-05T07:29:46.779Z,22.45
2019-01-05T07:31:25.531Z,24.15
2019-01-05T07:33:03.641Z,22.52
2019-01-05T07:34:50.251Z,26.12
2019-01-05T07:36:36.148Z,24.60
2019-01-05T07:38:37.456Z,24.15
2019-01-05T07:40:24.402Z,25.45
2019-01-05T07:42:18.615Z,22.73
2019-01-05T07:43:40.236Z,23.35
2019-01-05T07:45:25.865Z,28.65
2019-01-05T07:46:55.185Z,27.13
2019-01-05T07:48:36.925Z,26.40
2019-01-05T07:50:05.121Z,22.98
2019-01-05T07:51:33.493Z,31.75
2019-01-05T07:53:10.829Z,24.72
2019-01-05T07:54:07.905Z,36.88
2019-01-05T07:55:37.146Z,27.82
2019-01-05T07:57:20.657Z,29.77
2019-01-05T07:59:02.833Z,125.70
2019-01-05T08:00:38.728Z,35.20
2019-01-05T08:02:12.319Z,32.38
2019-01-05T08:03:55.366Z,33.65
2019-01-05T08:05:33.228Z,24.95
2019-01-05T08:07:20.948Z,34.08
2019-01-05T08:08:56.797Z,27.87
2019-01-05T08:10:26.116Z,33.05
2019-01-05T08:12:05.438Z,24.87
2019-01-05T08:13:41.139Z,28.62
2019-01-05T08:15:13.038Z,33.83
2019-01-05T08:16:45.669Z,34.65
2019-01-05T08:18:30.237Z,33.53
2019-01-05T08:20:08.524Z,36.63
2019-01-05T08:22:05.245Z,37.55
2019-01-05T08:23:49.361Z,91.90
2019-01-05T08:25:26.094Z,30.32
2019-01-05T08:26:53.293Z,26.02
2019-01-05T08:28:28.843Z,34.00
2019-01-05T08:30:27.413Z,38.85
2019-01-05T08:32:08.755Z,36.98
2019-01-05T08:33:53.963Z,33.05
2019-01-05T08:35:33.065Z,27.02
2019-01-05T08:37:15.085Z,28.62
2019-01-05T08:39:02.534Z,28.70
2019-01-05T08:40:35.009Z,31.05
2019-01-05T08:42:19.059Z,38.98
2019-01-05T08:44:02.331Z,36.90
2019-01-05T08:45:34.582Z,37.28
2019-01-05T08:47:22.367Z,39.53
2019-01-05T08:49:00.880Z,42.67
2019-01-05T08:50:56.570Z,36.93
2019-01-05T08:52:32.379Z,49.48
2019-01-05T08:54:19.992Z,26.40
2019-01-05T08:55:56.222Z,34.30
2019-01-05T08:57:27.570Z,34.95
2019-01-05T08:59:14.877Z,33.05
2019-01-05T09:01:01.174Z,31.52
2019-01-05T09:02:35.445Z,32.90
2019-01-05T09:03:56.282Z,35.35
2019-01-05T09:05:22.529Z,33.67
2019-01-05T09:07:08.291Z,36.98
2019-01-05T09:08:58.969Z,31.70
2019-01-05T09:10:40.989Z,36.90
2019-01-05T09:12:13.535Z,32.48
2019-01-05T09:14:18.364Z,33.15
2019-01-05T09:16:08.131Z,33.13
2019-01-05T09:18:06.139Z,45.35
2019-01-05T09:19:44.126Z,62.70
2019-01-05T09:21:12.758Z,48.20
2019-01-05T09:22:49.370Z,47.55
2019-01-05T09:24:22.015Z,43.45
2019-01-05T09:25:40.556Z,33.88
2019-01-05T09:27:33.938Z,42.62
2019-01-05T09:29:16.514Z,45.83
2019-01-05T09:30:52.257Z,35.58
2019-01-05T09:32:53.086Z,33.83
2019-01-05T09:34:41.558Z,39.25
2019-01-05T09:36:26.805Z,38.30
2019-01-05T09:38:28.045Z,36.55
2019-01-05T09:39:52.107Z,34.03
2019-01-05T09:41:22.531Z,48.02
2019-01-05T09:43:12.198Z,34.75
2019-01-05T09:44:46.096Z,44.98
2019-01-05T09:46:51.980Z,38.48
2019-01-05T09:48:35.837Z,37.80
2019-01-05T09:50:14.913Z,53.78
2019-01-05T09:52:23.117Z,35.52
2019-01-05T09:54:10.839Z,38.98
2019-01-05T09:56:06.061Z,49.58
2019-01-05T09:57:54.998Z,34.35
2019-01-05T09:59:28.178Z,34.65
2019-01-05T10:00:48.611Z,34.65
2019-01-05T10:02:43.564Z,32.58
2019-01-05T10:04:20.433Z,34.50
2019-01-05T10:06:08.670Z,31.07
2019-01-05T10:07:57.518Z,38.98
2019-01-05T10:09:19.856Z,28.75
2019-01-05T10:11:12.699Z,41.08
2019-01-05T10:12:43.360Z,46.53
2019-01-05T10:14:19.952Z,38.90
2019-01-05T10:15:43.672Z,32.03
2019-01-05T10:17:17.370Z,93.03
2019-01-05T10:19:01.379Z,47.13
2019-01-05T10:20:43.284Z,38.90
2019-01-05T10:22:32.520Z,35.43
2019-01-05T10:24:15.737Z,33.30
2019-01-05T10:25:59.591Z,30.37
2019-01-05T10:27:27.169Z,30.80
2019-01-05T10:28:49.370Z,33.98
2019-01-05T10:30:19.477Z,30.17
2019-01-05T10:32:14.573Z,24.60
2019-01-05T10:33:59.426Z,24.23
2019-01-05T10:35:29.397Z,22.50
2019-01-05T10:37:06.098Z,22.70
2019-01-05T10:38:48.707Z,21.93
2019-01-05T10:40:10.918Z,24.00
2019-01-05T10:41:50.168Z,20.92
2019-01-05T10:43:20.621Z,22.85
2019-01-05T10:45:01.846Z,19.80
2019-01-05T10:46:29.815Z,19.52
2019-01-05T10:48:01.906Z,19.17
2019-01-05T10:49:51.446Z,23.20
2019-01-05T10:51:43.269Z,18.07
2019-01-05T10:53:16.862Z,17.40
2019-01-05T10:55:08.886Z,19.50
2019-01-05T10:57:13.169Z,16.52
2019-01-05T10:58:52.877Z,19.02
2019-01-05T11:00:34.518Z,18.98
2019-01-05T11:02:14.633Z,17.50
2019-01-05T11:03:57.934Z,19.77
2019-01-05T11:05:27.718Z,19.17
2019-01-05T11:07:08.246Z,18.65
2019-01-05T11:08:46.261Z,19.98
2019-01-05T11:10:18.746Z,19.55
2019-01-05T11:12:01.625Z,16.82
2019-01-05T11:13:33.986Z,19.82
2019-01-05T11:15:16.490Z,18.50
2019-01-05T11:17:17.728Z,17.65
2019-01-05T11:19:04.847Z,15.30
2019-01-05T11:20:55.936Z,15.95
2019-01-05T11:22:52.422Z,14.00
2019-01-05T11:24:21.090Z,15.68
2019-01-05T11:25:54.772Z,15.38
2019-01-05T11:27:40.526Z,13.05
2019-01-05T11:29:29.508Z,13.62
2019-01-05T11:30:56.835Z,11.63
2019-01-05T11:32:32.778Z,12.53
2019-01-05T11:34:05.760Z,12.13
2019-01-05T11:35:38.675Z,14.33
2019-01-05T11:37:02.106Z,11.25
2019-01-05T11:38:30.264Z,20.82
2019-01-05T11:40:14.806Z,12.98
2019-01-05T11:42:07.118Z,14.85
2019-01-05T11:43:50.607Z,61.53
2019-01-05T11:45:58.878Z,12.15
2019-01-05T11:47:31.768Z,14.85
2019-01-05T11:49:19.989Z,15.38
2019-01-05T11:51:00.447Z,23.47
2019-01-05T11:52:26.164Z,12.20
2019-01-05T11:54:02.822Z,13.05
2019-01-05T11:55:34.782Z,14.53
2019-01-05T11:57:04.786Z,14.60
2019-01-05T11:58:47.386Z,15.53
2019-01-05T12:00:15.641Z,13.53
2019-01-05T12:01:26.177Z,13.62
2019-01-05T12:03:03.091Z,15.00
2019-01-05T12:04:38.826Z,25.62
2019-01-05T12:06:23.594Z,14.03
2019-01-05T12:08:16.827Z,13.20
2019-01-05T12:09:50.529Z,14.95
2019-01-05T12:11:51.073Z,14.60
2019-01-05T12:13:27.226Z,14.30
2019-01-05T12:14:53.638Z,13.08
2019-01-05T12:16:49.765Z,12.05
2019-01-05T12:18:42.356Z,11.68
2019-01-05T12:20:27.992Z,12.37
2019-01-05T12:22:03.424Z,13.08
2019-01-05T12:23:58.348Z,13.00
2019-01-05T12:25:53.001Z,11.95
2019-01-05T12:27:53.750Z,13.10
2019-01-05T12:29:29.573Z,15.18
2019-01-05T12:31:15.556Z,13.65
2019-01-05T12:32:57.646Z,15.30
2019-01-05T12:34:26.566Z,13.78
2019-01-05T12:36:19.880Z,13.13
2019-01-05T12:37:47.336Z,13.00
2019-01-05T12:39:31.595Z,11.97
2019-01-05T12:41:07.646Z,11.97
2019-01-05T12:42:56.786Z,14.85
2019-01-05T12:44:31.951Z,11.18
2019-01-05T12:46:05.855Z,12.98
2019-01-05T12:47:45.982Z,12.40
2019-01-05T12:49:18.481Z,17.10
2019-01-05T12:51:05.293Z,11.08
2019-01-05T12:52:49.892Z,12.85
2019-01-05T12:54:17.343Z,36.00
2019-01-05T12:55:55.348Z,17.95
2019-01-05T12:57:29.312Z,65.87
2019-01-05T12:59:09.427Z,13.68
2019-01-05T13:01:02.641Z,13.88
2019-01-05T13:02:29.822Z,11.95
2019-01-05T13:04:15.262Z,12.13
2019-01-05T13:05:53.872Z,12.45
2019-01-05T13:07:32.483Z,17.45
2019-01-05T13:08:56.766Z,12.75
2019-01-05T13:10:44.698Z,13.93
2019-01-05T13:12:25.685Z,20.05
2019-01-05T13:14:10.612Z,11.15
2019-01-05T13:15:54.451Z,12.10
2019-01-05T13:17:30.799Z,9.05
2019-01-05T13:19:16.380Z,36.38
2019-01-05T13:21:05.233Z,5.00
2019-01-05T13:22:32.520Z,0.10
2019-01-05T13:24:03.512Z,0.10
2019-01-05T13:25:55.363Z,0.10
2019-01-05T13:27:40.603Z,1.72
2019-01-05T13:29:09.990Z,0.10
2019-01-05T13:30:59.670Z,0.10
2019-01-05T13:32:51.492Z,0.10
2019-01-05T13:34:22.822Z,0.10
2019-01-05T13:35:57.857Z,0.10
2019-01-05T13:37:35.952Z,0.10
2019-01-05T13:39:24.911Z,0.37
2019-01-05T13:41:26.661Z,0.75
2019-01-05T13:43:14.018Z,0.10
2019-01-05T13:44:51.562Z,0.37
2019-01-05T13:46:38.464Z,0.10
2019-01-05T13:48:30.923Z,0.10
2019-01-05T13:50:08.192Z,0.10
2019-01-05T13:51:45.196Z,0.17
2019-01-05T13:53:09.953Z,0.10
2019-01-05T13:54:13.733Z,0.10
2019-01-05T13:55:17.961Z,0.28
2019-01-05T13:56:15.291Z,1.92
2019-01-05T13:57:17.994Z,1.67
2019-01-05T13:58:15.412Z,3.12
2019-01-05T13:59:53.210Z,0.10
2019-01-05T14:00:50.564Z,0.10
2019-01-05T14:01:47.952Z,3.62
2019-01-05T14:02:42.374Z,0.30
2019-01-05T14:03:29.462Z,0.20
2019-01-05T14:04:37.873Z,0.25
2019-01-05T14:05:35.214Z,2.25
2019-01-05T14:06:22.702Z,0.68
2019-01-05T14:07:32.368Z,0.10
2019-01-05T14:08:27.565Z,3.50
2019-01-05T14:09:28.174Z,0.20
2019-01-05T14:10:43.472Z,0.33
2019-01-05T14:11:36.402Z,1.75
2019-01-05T14:12:29.433Z,1.45
2019-01-05T14:13:30.054Z,1.52
2019-01-05T14:14:27.112Z,0.88
2019-01-05T14:15:27.100Z,0.55
2019-01-05T14:16:24.650Z,0.10
2019-01-05T14:17:17.771Z,0.20
2019-01-05T14:18:12.153Z,0.20
2019-01-05T14:19:05.310Z,0.20
2019-01-05T14:20:02.431Z,0.10
2019-01-05T14:20:55.492Z,0.90
2019-01-05T14:21:48.132Z,0.65
2019-01-05T14:23:00.421Z,0.60
2019-01-05T14:23:40.662Z,0.10
2019-01-05T14:24:33.912Z,0.20
2019-01-05T14:25:34.149Z,0.10
2019-01-05T14:26:27.174Z,0.30
2019-01-05T14:27:21.642Z,1.25
2019-01-05T14:28:31.170Z,1.35
2019-01-05T14:29:28.332Z,4.58
2019-01-05T14:30:23.171Z,7.78
2019-01-05T14:31:29.552Z,7.20
2019-01-05T14:32:35.909Z,8.50
2019-01-05T14:33:33.252Z,7.65
2019-01-05T14:34:36.551Z,7.75
2019-01-05T14:35:30.502Z,7.40
2019-01-05T14:36:24.043Z,8.88
2019-01-05T14:37:27.332Z,7.50
2019-01-05T14:38:20.586Z,7.35
2019-01-05T14:39:19.816Z,9.00
2019-01-05T14:40:19.375Z,8.95
2019-01-05T14:41:06.621Z,8.60
2019-01-05T14:42:06.584Z,8.35
2019-01-05T14:43:19.182Z,9.80
2019-01-05T14:44:11.973Z,8.43
2019-01-05T14:45:16.422Z,7.92
2019-01-05T14:46:16.863Z,8.35
2019-01-05T14:47:14.000Z,7.80
2019-01-05T14:48:07.756Z,7.22
2019-01-05T14:49:00.331Z,8.15
2019-01-05T14:50:02.472Z,8.93
2019-01-05T14:50:55.791Z,9.35
2019-01-05T14:51:50.163Z,15.65
2019-01-05T14:52:42.326Z,9.23
2019-01-05T14:53:39.735Z,8.75
2019-01-05T14:54:33.581Z,8.93
2019-01-05T14:55:27.863Z,9.18
2019-01-05T14:56:21.120Z,10.72
2019-01-05T14:57:14.097Z,25.23
2019-01-05T14:58:07.833Z,17.50
2019-01-05T14:59:08.324Z,41.25
2019-01-05T15:00:09.082Z,23.87
2019-01-05T15:01:19.401Z,7.83
2019-01-05T15:02:16.852Z,5.17
2019-01-05T15:03:24.192Z,30.43
2019-01-05T15:04:16.979Z,7.72
2019-01-05T15:05:11.260Z,14.15
2019-01-05T15:06:17.901Z,17.12
2019-01-05T15:07:10.643Z,9.25
2019-01-05T15:08:03.144Z,18.02
2019-01-05T15:09:15.872Z,8.83
2019-01-05T15:10:08.782Z,7.72
2019-01-05T15:11:01.183Z,25.00
2019-01-05T15:11:55.630Z,10.23
2019-01-05T15:13:01.584Z,18.45
2019-01-05T15:14:07.920Z,7.72
2019-01-05T15:15:01.479Z,9.58
2019-01-05T15:15:55.870Z,11.60
2019-01-05T15:16:49.469Z,7.83
2019-01-05T15:17:42.060Z,8.90
2019-01-05T15:18:42.192Z,9.08
2019-01-05T15:19:36.792Z,29.50
2019-01-05T15:20:37.242Z,8.45
2019-01-05T15:21:27.422Z,9.70
2019-01-05T15:22:22.002Z,10.10
2019-01-05T15:23:14.713Z,18.70
2019-01-05T15:24:08.092Z,9.20
2019-01-05T15:25:12.912Z,9.33
2019-01-05T15:26:07.425Z,9.55
2019-01-05T15:27:00.531Z,8.45
2019-01-05T15:27:54.089Z,8.60
2019-01-05T15:28:46.791Z,9.60
2019-01-05T15:29:41.410Z,37.98
2019-01-05T15:30:42.037Z,10.72
2019-01-05T15:31:54.521Z,9.38
2019-01-05T15:33:01.082Z,9.53
2019-01-05T15:34:12.082Z,11.33
2019-01-05T15:35:05.393Z,9.13
2019-01-05T15:35:59.772Z,10.30
2019-01-05T15:37:06.402Z,7.33
2019-01-05T15:38:03.672Z,10.70
2019-01-05T15:38:56.514Z,11.03
2019-01-05T15:40:05.944Z,10.25
2019-01-05T15:40:58.782Z,8.30
2019-01-05T15:41:47.922Z,9.40
2019-01-05T15:42:40.363Z,13.85
2019-01-05T15:43:38.034Z,9.15
2019-01-05T15:44:30.979Z,10.25
2019-01-05T15:45:23.999Z,9.65
2019-01-05T15:46:18.697Z,10.43
2019-01-05T15:47:13.152Z,10.45
2019-01-05T15:48:06.064Z,8.60
2019-01-05T15:49:01.304Z,9.73
2019-01-05T15:49:58.751Z,9.98
2019-01-05T15:51:02.032Z,9.40
2019-01-05T15:52:05.402Z,8.20
2019-01-05T15:53:11.742Z,11.12
2019-01-05T15:54:17.919Z,19.23
2019-01-05T15:55:30.442Z,17.05
2019-01-05T15:56:43.013Z,15.23
2019-01-05T15:57:42.291Z,23.60
2019-01-05T15:58:39.442Z,29.57
2019-01-05T15:59:33.930Z,27.13
2019-01-05T16:00:28.701Z,19.73
2019-01-05T16:01:25.858Z,20.82
2019-01-05T16:02:38.664Z,19.07
2019-01-05T16:03:42.033Z,12.55
2019-01-05T16:04:39.682Z,17.87
2019-01-05T16:05:32.732Z,12.63
2019-01-05T16:06:25.781Z,10.63
2019-01-05T16:07:19.052Z,10.82
2019-01-05T16:08:12.380Z,13.62
2019-01-05T16:09:05.001Z,14.30
2019-01-05T16:09:58.252Z,10.20
2019-01-05T16:10:51.635Z,32.00
2019-01-05T16:11:48.942Z,10.15
2019-01-05T16:12:51.622Z,12.18
2019-01-05T16:13:46.191Z,9.68
2019-01-05T16:14:58.185Z,9.18
2019-01-05T16:15:51.221Z,10.72
2019-01-05T16:16:57.733Z,13.30
2019-01-05T16:17:52.263Z,33.67
2019-01-05T16:18:54.779Z,9.90
2019-01-05T16:20:04.270Z,11.22
2019-01-05T16:20:57.613Z,8.58
2019-01-05T16:21:50.492Z,16.17
2019-01-05T16:22:43.294Z,13.58
2019-01-05T16:23:37.725Z,15.85
2019-01-05T16:24:35.433Z,73.12
2019-01-05T16:25:47.820Z,11.18
2019-01-05T16:26:42.397Z,10.03
2019-01-05T16:27:54.855Z,10.98
2019-01-05T16:29:01.343Z,8.55
2019-01-05T16:30:04.632Z,16.82
2019-01-05T16:30:57.702Z,9.15
2019-01-05T16:32:10.312Z,9.55
2019-01-05T16:33:05.912Z,10.75
2019-01-05T16:34:12.644Z,10.50
2019-01-05T16:35:19.210Z,9.90
2019-01-05T16:36:20.181Z,8.48
2019-01-05T16:37:17.479Z,20.00
2019-01-05T16:38:27.126Z,7.80
2019-01-05T16:39:23.243Z,12.63
2019-01-05T16:40:10.152Z,10.43
2019-01-05T16:41:11.152Z,11.50
2019-01-05T16:42:11.572Z,17.42
2019-01-05T16:43:11.781Z,12.30
2019-01-05T16:44:21.472Z,9.48
2019-01-05T16:45:15.381Z,10.15
2019-01-05T16:46:24.913Z,11.05
2019-01-05T16:47:17.742Z,10.93
2019-01-05T16:48:12.339Z,11.80
2019-01-05T16:49:21.962Z,11.12
2019-01-05T16:50:19.103Z,10.95
2019-01-05T16:51:12.452Z,9.40
2019-01-05T16:52:07.552Z,10.90
2019-01-05T16:53:04.862Z,11.00
2019-01-05T16:54:14.302Z,11.53
2019-01-05T16:55:14.632Z,10.93
2019-01-05T16:56:07.774Z,30.62
2019-01-05T16:56:55.600Z,11.48
2019-01-05T16:58:00.616Z,10.20
2019-01-05T16:59:01.642Z,16.17
2019-01-05T16:59:58.713Z,11.68
2019-01-05T17:01:05.242Z,10.60
2019-01-05T17:02:03.521Z,11.12
2019-01-05T17:02:57.165Z,5.08
2019-01-05T17:03:50.343Z,11.33
2019-01-05T17:04:43.563Z,10.88
2019-01-05T17:05:37.671Z,11.95
2019-01-05T17:06:30.693Z,13.30
2019-01-05T17:07:27.911Z,10.43
2019-01-05T17:08:21.262Z,10.75
2019-01-05T17:09:18.812Z,9.58
2019-01-05T17:10:22.501Z,9.38
2019-01-05T17:11:16.930Z,7.50
2019-01-05T17:12:11.362Z,9.95
2019-01-05T17:13:05.662Z,11.20
2019-01-05T17:13:58.983Z,8.83
2019-01-05T17:14:51.302Z,10.05
2019-01-05T17:15:45.641Z,10.23
2019-01-05T17:16:39.032Z,10.20
2019-01-05T17:17:51.532Z,9.93
2019-01-05T17:18:44.171Z,10.10
2019-01-05T17:19:50.623Z,40.75
2019-01-05T17:20:43.100Z,9.60
2019-01-05T17:21:43.293Z,29.90
2019-01-05T17:22:43.782Z,12.58
2019-01-05T17:23:36.713Z,21.02
2019-01-05T17:24:34.303Z,17.55
2019-01-05T17:25:31.330Z,12.33